This is the latest recevied weather packets stored in our database for station/object IU1OLT-7. If no packets are shown the sender has not sent any weather packets the latest 10 day(s).
| Time | Temp. | Humidity | Pressure | Rain* | Wind** | Luminosity | Snow |
|---|---|---|---|---|---|---|---|
| 1787568816 | 35° C | 27% | 1023.4 hPa | - | - | - | - |
| 1787567916 | 33.89° C | 29% | 1023.4 hPa | - | - | - | - |
| 1787567016 | 33.33° C | 29% | 1023.4 hPa | - | - | - | - |
| 1787566116 | 36.11° C | 26% | 1023.2 hPa | - | - | - | - |
| 1787565216 | 32.78° C | 31% | 1023.5 hPa | - | - | - | - |
| 1787564316 | 33.89° C | 29% | 1023.5 hPa | - | - | - | - |
| 1787563416 | 31.67° C | 35% | 1023.5 hPa | - | - | - | - |
| 1787562632 | 33.89° C | 32% | 1023.5 hPa | - | - | - | - |
| 1787562511 | 33.89° C | 32% | 1023.5 hPa | - | - | - | - |
| 1787561611 | 32.22° C | 37% | 1023.4 hPa | - | - | - | - |
| 1787560711 | 32.78° C | 33% | 1023.3 hPa | - | - | - | - |
| 1787559811 | 31.67° C | 36% | 1023.3 hPa | - | - | - | - |
| 1787558911 | 31.67° C | 37% | 1023.3 hPa | - | - | - | - |
| 1787558011 | 29.44° C | 42% | 1023.2 hPa | - | - | - | - |
| 1787557108 | 29.44° C | 39% | 1023.1 hPa | - | - | - | - |
| 1787556208 | 28.89° C | 40% | 1022.9 hPa | - | - | - | - |
| 1787555308 | 27.78° C | 43% | 1022.9 hPa | - | - | - | - |
| 1787554408 | 27.78° C | 42% | 1022.9 hPa | - | - | - | - |
| 1787553507 | 29.44° C | 39% | 1023 hPa | - | - | - | - |
| 1787552607 | 29.44° C | 37% | 1023 hPa | - | - | - | - |
| 1787551707 | 27.22° C | 42% | 1023.1 hPa | - | - | - | - |
| 1787550807 | 23.89° C | 52% | 1023.2 hPa | - | - | - | - |
| 1787549907 | 22.78° C | 59% | 1023.1 hPa | - | - | - | - |
| 1787549007 | 21.67° C | 62% | 1022.9 hPa | - | - | - | - |
| 1787548108 | 21.11° C | 62% | 1022.9 hPa | - | - | - | - |
* Rain since midnight (hover to see other rain measurements)
** Current wind speed in m/s (hover to see current wind gust speed)